createdAt,value
2017-12-21T00:02:10.863Z,100583.93
2017-12-21T00:04:37.298Z,100591.03
2017-12-21T00:07:03.732Z,100585.39
2017-12-21T00:09:30.167Z,100594.03
2017-12-21T00:11:56.532Z,100580.95
2017-12-21T00:14:22.933Z,100578.65
2017-12-21T00:16:50.188Z,100571.23
2017-12-21T00:19:16.620Z,100569.80
2017-12-21T00:21:43.055Z,100580.36
2017-12-21T00:24:09.491Z,100579.87
2017-12-21T00:26:35.925Z,100561.21
2017-12-21T00:29:02.361Z,100571.72
2017-12-21T00:31:28.797Z,100575.20
2017-12-21T00:33:55.844Z,100579.48
2017-12-21T00:36:22.298Z,100587.60
2017-12-21T00:38:48.712Z,100593.63
2017-12-21T00:41:15.076Z,100583.88
2017-12-21T00:43:41.564Z,100590.03
2017-12-21T00:46:08.016Z,100578.47
2017-12-21T00:48:34.455Z,100588.78
2017-12-21T00:51:01.588Z,100589.20
2017-12-21T00:53:28.037Z,100593.07
2017-12-21T00:55:54.370Z,100593.34
2017-12-21T00:58:20.803Z,100586.63
2017-12-21T01:00:47.253Z,100582.59
2017-12-21T01:03:13.708Z,100583.91
2017-12-21T01:05:40.189Z,100583.22
2017-12-21T01:08:07.357Z,100589.06
2017-12-21T01:10:33.729Z,100595.65
2017-12-21T01:13:00.128Z,100584.40
2017-12-21T01:15:26.561Z,100591.85
2017-12-21T01:17:53.098Z,100593.91
2017-12-21T01:20:19.533Z,100593.03
2017-12-21T01:22:45.896Z,100587.57
2017-12-21T01:25:13.323Z,100590.46
2017-12-21T01:27:39.687Z,100584.78
2017-12-21T01:30:06.090Z,100582.20
2017-12-21T01:32:32.524Z,100586.11
2017-12-21T01:34:58.959Z,100586.59
2017-12-21T01:37:25.393Z,100585.76
2017-12-21T01:39:51.828Z,100580.61
2017-12-21T01:42:18.979Z,100584.95
2017-12-21T01:44:45.414Z,100589.97
2017-12-21T01:47:11.971Z,100594.36
2017-12-21T01:49:38.386Z,100596.48
2017-12-21T01:52:04.922Z,100596.31
2017-12-21T01:54:31.358Z,100590.56
2017-12-21T01:56:57.684Z,100596.17
2017-12-21T01:59:24.840Z,100597.03
2017-12-21T02:01:51.282Z,100591.91
2017-12-21T02:04:17.710Z,100588.99
2017-12-21T02:06:44.162Z,100592.05
2017-12-21T02:09:10.580Z,100588.19
2017-12-21T02:11:37.013Z,100586.14
2017-12-21T02:14:03.448Z,100582.06
2017-12-21T02:16:30.603Z,100570.48
2017-12-21T02:18:57.037Z,100559.13
2017-12-21T02:21:23.407Z,100564.00
2017-12-21T02:23:49.801Z,100561.80
2017-12-21T02:26:16.164Z,100560.55
2017-12-21T02:28:42.623Z,100552.33
2017-12-21T02:31:08.937Z,100542.52
2017-12-21T02:33:36.263Z,100551.81
2017-12-21T02:36:02.692Z,100553.86
2017-12-21T02:38:29.124Z,100550.49
2017-12-21T02:40:55.551Z,100551.73
2017-12-21T02:43:21.992Z,100552.82
2017-12-21T02:45:48.428Z,100551.42
2017-12-21T02:48:14.862Z,100549.30
2017-12-21T02:50:42.014Z,100548.05
2017-12-21T02:53:08.346Z,100532.17
2017-12-21T02:55:34.780Z,100545.61
2017-12-21T02:58:01.216Z,100552.41
2017-12-21T03:00:27.652Z,100547.49
2017-12-21T03:02:54.102Z,100551.36
2017-12-21T03:05:20.519Z,100548.54
2017-12-21T03:07:47.664Z,100541.78
2017-12-21T03:10:14.210Z,100545.89
2017-12-21T03:12:40.571Z,100549.23
2017-12-21T03:15:06.938Z,100553.80
2017-12-21T03:17:33.408Z,100555.19
2017-12-21T03:19:59.843Z,100553.97
2017-12-21T03:22:26.295Z,100557.97
2017-12-21T03:24:53.404Z,100562.78
2017-12-21T03:27:19.863Z,100558.05
2017-12-21T03:29:46.297Z,100558.63
2017-12-21T03:32:12.732Z,100561.45
2017-12-21T03:34:39.166Z,100568.66
2017-12-21T03:37:05.601Z,100566.61
2017-12-21T03:39:32.035Z,100574.12
2017-12-21T03:41:59.116Z,100581.44
2017-12-21T03:44:25.519Z,100581.58
2017-12-21T03:46:51.885Z,100584.72
2017-12-21T03:49:18.375Z,100579.00
2017-12-21T03:51:44.818Z,100580.02
2017-12-21T03:54:11.259Z,100590.91
2017-12-21T03:56:37.620Z,100592.34
2017-12-21T03:59:04.945Z,100598.64
2017-12-21T04:01:31.379Z,100592.38
2017-12-21T04:03:57.862Z,100597.66
2017-12-21T04:06:24.219Z,100594.35
2017-12-21T04:08:50.660Z,100599.36
2017-12-21T04:11:17.118Z,100599.22
2017-12-21T04:13:43.552Z,100598.98
2017-12-21T04:16:10.704Z,100606.22
2017-12-21T04:18:37.131Z,100602.17
2017-12-21T04:21:03.504Z,100610.08
2017-12-21T04:23:29.906Z,100611.44
2017-12-21T04:25:56.339Z,100611.00
2017-12-21T04:28:22.704Z,100614.73
2017-12-21T04:30:49.036Z,100614.73
2017-12-21T04:33:16.380Z,100612.33
2017-12-21T04:35:42.692Z,100611.28
2017-12-21T04:38:09.089Z,100597.48
2017-12-21T04:40:35.531Z,100603.02
2017-12-21T04:43:01.973Z,100605.23
2017-12-21T04:45:28.415Z,100612.16
2017-12-21T04:47:54.864Z,100609.70
2017-12-21T04:50:22.105Z,100607.01
2017-12-21T04:52:48.515Z,100602.73
2017-12-21T04:55:14.987Z,100605.23
2017-12-21T04:57:41.441Z,100600.82
2017-12-21T05:00:07.858Z,100597.34
2017-12-21T05:02:34.291Z,100600.23
2017-12-21T05:05:00.623Z,100604.09
2017-12-21T05:07:27.876Z,100610.54
2017-12-21T05:09:54.248Z,100605.14
2017-12-21T05:12:20.643Z,100615.97
2017-12-21T05:14:47.078Z,100609.25
2017-12-21T05:17:13.550Z,100593.47
2017-12-21T05:19:39.948Z,100602.95
2017-12-21T05:22:06.382Z,100613.17
2017-12-21T05:24:33.533Z,100607.33
2017-12-21T05:26:59.864Z,100609.34
2017-12-21T05:29:26.198Z,100612.34
2017-12-21T05:31:52.631Z,100612.34
2017-12-21T05:34:19.054Z,100617.66
2017-12-21T05:36:45.398Z,100615.12
2017-12-21T05:39:11.836Z,100615.02
2017-12-21T05:41:38.884Z,100628.03
2017-12-21T05:44:05.318Z,100628.62
2017-12-21T05:46:31.679Z,100626.70
2017-12-21T05:48:58.056Z,100628.30
2017-12-21T05:51:24.450Z,100634.13
2017-12-21T05:53:50.850Z,100619.23
2017-12-21T05:56:17.223Z,100621.57
2017-12-21T05:58:44.437Z,100626.45
2017-12-21T06:01:10.839Z,100588.41
2017-12-21T06:03:37.283Z,100628.77
2017-12-21T06:06:03.673Z,100627.59
2017-12-21T06:08:30.090Z,100632.78
2017-12-21T06:10:56.482Z,100626.17
2017-12-21T06:13:22.924Z,100627.27
2017-12-21T06:15:50.091Z,100647.63
2017-12-21T06:18:16.423Z,100633.40
2017-12-21T06:20:42.857Z,100632.18
2017-12-21T06:23:09.293Z,100631.55
2017-12-21T06:25:35.611Z,100639.20
2017-12-21T06:28:02.059Z,100644.35
2017-12-21T06:30:28.394Z,100644.05
2017-12-21T06:32:55.644Z,100635.88
2017-12-21T06:35:22.079Z,100643.64
2017-12-21T06:37:48.514Z,100637.89
2017-12-21T06:40:14.968Z,100637.57
2017-12-21T06:42:41.313Z,100637.12
2017-12-21T06:45:07.715Z,100642.17
2017-12-21T06:47:34.149Z,100627.92
2017-12-21T06:50:01.199Z,100639.08
2017-12-21T06:52:27.594Z,100640.96
2017-12-21T06:54:54.067Z,100647.72
2017-12-21T06:57:20.400Z,100642.32
2017-12-21T06:59:46.838Z,100656.67
2017-12-21T07:02:13.268Z,100646.50
2017-12-21T07:04:39.737Z,100647.58
2017-12-21T07:07:06.138Z,100646.12
2017-12-21T07:09:32.469Z,100659.28
2017-12-21T07:11:58.856Z,100660.19
2017-12-21T07:14:25.324Z,100662.39
2017-12-21T07:16:51.725Z,100650.54
2017-12-21T07:19:18.059Z,100650.78
2017-12-21T07:21:44.356Z,100652.25
2017-12-21T07:24:10.804Z,100655.17
2017-12-21T07:26:37.205Z,100650.78
2017-12-21T07:29:03.640Z,100658.02
2017-12-21T07:31:30.073Z,100658.30
2017-12-21T07:33:56.611Z,100645.90
2017-12-21T07:36:25.699Z,100651.92
2017-12-21T07:38:52.859Z,100651.05
2017-12-21T07:41:21.768Z,100645.41
2017-12-21T07:43:48.277Z,100647.25
2017-12-21T07:46:14.619Z,100655.86
2017-12-21T07:48:41.060Z,100660.42
2017-12-21T07:51:07.453Z,100657.42
2017-12-21T07:53:33.894Z,100661.33
2017-12-21T07:56:00.358Z,100667.95
2017-12-21T07:58:26.818Z,100667.63
2017-12-21T08:00:53.226Z,100673.13
2017-12-21T08:03:19.661Z,100680.17
2017-12-21T08:05:46.102Z,100681.15
2017-12-21T08:08:12.427Z,100688.99
2017-12-21T08:10:38.862Z,100669.62
2017-12-21T08:13:05.269Z,100690.77
2017-12-21T08:15:31.834Z,100693.35
2017-12-21T08:17:58.202Z,100689.23
2017-12-21T08:20:24.532Z,100687.75
2017-12-21T08:22:50.896Z,100683.27
2017-12-21T08:25:17.264Z,100681.59
2017-12-21T08:27:43.642Z,100676.09
2017-12-21T08:30:10.133Z,100680.41
2017-12-21T08:32:36.569Z,100687.23
2017-12-21T08:35:03.002Z,100688.03
2017-12-21T08:37:29.439Z,100688.39
2017-12-21T08:39:55.871Z,100690.21
2017-12-21T08:42:22.306Z,100694.42
2017-12-21T08:44:48.842Z,100661.48
2017-12-21T08:47:15.280Z,100678.80
2017-12-21T08:49:41.713Z,100676.43
2017-12-21T08:52:08.225Z,100682.14
2017-12-21T08:54:34.786Z,100682.20
2017-12-21T08:57:01.220Z,100686.54
2017-12-21T08:59:27.588Z,100679.70
2017-12-21T09:01:53.987Z,100676.06
2017-12-21T09:04:20.627Z,100672.23
2017-12-21T09:06:46.996Z,100679.73
2017-12-21T09:09:13.369Z,100641.52
2017-12-21T09:11:39.765Z,100656.91
2017-12-21T09:14:06.253Z,100653.67
2017-12-21T09:16:32.699Z,100648.58
2017-12-21T09:18:59.061Z,100647.06
2017-12-21T09:21:25.463Z,100652.25
2017-12-21T09:23:52.000Z,100647.17
2017-12-21T09:26:18.434Z,100645.26
2017-12-21T09:28:44.869Z,100642.09
2017-12-21T09:31:11.303Z,100643.91
2017-12-21T09:33:37.777Z,100644.80
2017-12-21T09:36:04.201Z,100635.59
2017-12-21T09:38:30.612Z,100641.05
2017-12-21T09:40:57.041Z,100636.52
2017-12-21T09:43:23.414Z,100635.84
2017-12-21T09:45:49.910Z,100639.47
2017-12-21T09:48:16.345Z,100642.17
2017-12-21T09:50:42.881Z,100628.55
2017-12-21T09:53:09.357Z,100637.30
2017-12-21T09:55:35.787Z,100632.69
2017-12-21T09:58:02.185Z,100633.86
2017-12-21T10:00:28.619Z,100632.31
2017-12-21T10:02:55.054Z,100630.63
2017-12-21T10:05:21.591Z,100622.20
2017-12-21T10:07:48.027Z,100623.09
2017-12-21T10:10:14.461Z,100617.70
2017-12-21T10:12:40.895Z,100623.73
2017-12-21T10:15:07.363Z,100629.02
2017-12-21T10:17:33.696Z,100638.02
2017-12-21T10:20:00.403Z,100628.84
2017-12-21T10:22:26.776Z,100634.92
2017-12-21T10:24:53.288Z,100637.33
2017-12-21T10:27:19.711Z,100633.19
2017-12-21T10:29:46.092Z,100628.69
2017-12-21T10:32:12.474Z,100619.09
2017-12-21T10:34:39.011Z,100599.50
2017-12-21T10:37:05.445Z,100600.16
2017-12-21T10:39:32.294Z,100588.81
2017-12-21T10:41:58.727Z,100594.72
2017-12-21T10:44:25.104Z,100604.30
2017-12-21T10:46:51.446Z,100611.00
2017-12-21T10:49:17.825Z,100615.31
2017-12-21T10:51:44.260Z,100619.95
2017-12-21T10:54:11.307Z,100613.50
2017-12-21T10:56:37.673Z,100614.01
2017-12-21T10:59:04.073Z,100608.93
2017-12-21T11:01:30.374Z,100605.20
2017-12-21T11:03:56.815Z,100599.31
2017-12-21T11:06:23.274Z,100609.66
2017-12-21T11:08:49.710Z,100621.03
2017-12-21T11:11:16.144Z,100614.16
2017-12-21T11:13:42.680Z,100604.62
2017-12-21T11:16:09.115Z,100599.18
2017-12-21T11:18:35.549Z,100600.94
2017-12-21T11:21:02.324Z,100590.89
2017-12-21T11:23:28.725Z,100594.30
2017-12-21T11:25:55.060Z,100593.58
2017-12-21T11:28:21.492Z,100599.72
2017-12-21T11:30:47.926Z,100590.66
2017-12-21T11:33:14.363Z,100590.38
2017-12-21T11:35:40.818Z,100586.48
2017-12-21T11:38:07.235Z,100588.16
2017-12-21T11:40:34.621Z,100589.48
2017-12-21T11:43:01.020Z,100589.80
2017-12-21T11:45:27.558Z,100587.33
2017-12-21T11:47:53.992Z,100582.75
2017-12-21T11:50:20.427Z,100578.38
2017-12-21T11:52:46.792Z,100565.98
2017-12-21T11:55:13.315Z,100579.10
2017-12-21T11:57:39.731Z,100574.38
2017-12-21T12:00:06.107Z,100578.58
2017-12-21T12:02:32.906Z,100573.30
2017-12-21T12:04:59.443Z,100570.61
2017-12-21T12:07:25.939Z,100583.21
2017-12-21T12:09:52.272Z,100577.23
2017-12-21T12:12:18.645Z,100581.83
2017-12-21T12:14:45.200Z,100565.79
2017-12-21T12:17:11.573Z,100566.63
2017-12-21T12:19:38.050Z,100561.28
2017-12-21T12:22:04.383Z,100557.14
2017-12-21T12:24:30.919Z,100569.84
2017-12-21T12:26:57.284Z,100567.50
2017-12-21T12:29:23.616Z,100550.80
2017-12-21T12:31:49.977Z,100554.12
2017-12-21T12:34:16.349Z,100537.44
2017-12-21T12:36:42.684Z,100531.80
2017-12-21T12:39:09.116Z,100531.77
2017-12-21T12:41:35.426Z,100530.86
2017-12-21T12:44:01.812Z,100518.74
2017-12-21T12:46:28.216Z,100529.59
2017-12-21T12:48:54.650Z,100527.37
2017-12-21T12:51:21.007Z,100528.56
2017-12-21T12:53:47.417Z,100520.50
2017-12-21T12:56:13.853Z,100519.68
2017-12-21T12:58:40.286Z,100525.88
2017-12-21T13:01:06.720Z,100528.58
2017-12-21T13:03:33.088Z,100530.81
2017-12-21T13:05:59.462Z,100523.79
2017-12-21T13:08:25.912Z,100506.34
2017-12-21T13:10:52.358Z,100513.30
2017-12-21T13:13:18.763Z,100516.02
2017-12-21T13:15:45.123Z,100520.09
2017-12-21T13:18:11.557Z,100516.09
2017-12-21T13:20:37.991Z,100515.78
2017-12-21T13:23:04.391Z,100517.84
2017-12-21T13:25:30.847Z,100512.41
2017-12-21T13:27:57.295Z,100508.61
2017-12-21T13:30:24.384Z,100513.19
2017-12-21T13:32:50.799Z,100524.77
2017-12-21T13:35:17.267Z,100520.23
2017-12-21T13:37:43.669Z,100527.81
2017-12-21T13:40:10.082Z,100533.00
2017-12-21T13:42:36.415Z,100533.66
2017-12-21T13:45:02.932Z,100532.20
2017-12-21T13:47:29.385Z,100513.86
2017-12-21T13:49:55.754Z,100516.59
2017-12-21T13:52:22.112Z,100518.95
2017-12-21T13:54:48.587Z,100521.87
2017-12-21T13:57:16.680Z,100524.73
2017-12-21T13:59:43.095Z,100526.83
2017-12-21T14:02:09.463Z,100523.86
2017-12-21T14:04:35.965Z,100531.64
2017-12-21T14:07:02.397Z,100534.34
2017-12-21T14:09:30.773Z,100536.40
2017-12-21T14:11:57.519Z,100541.73
2017-12-21T14:14:24.056Z,100543.78
2017-12-21T14:16:50.490Z,100545.39
2017-12-21T14:19:17.419Z,100545.74
2017-12-21T14:21:43.871Z,100529.38
2017-12-21T14:24:10.348Z,100540.00
2017-12-21T14:26:36.743Z,100539.83
2017-12-21T14:29:03.195Z,100534.30
2017-12-21T14:31:29.611Z,100541.58
2017-12-21T14:33:56.147Z,100529.56
2017-12-21T14:36:22.582Z,100538.13
2017-12-21T14:38:49.015Z,100547.21
2017-12-21T14:41:15.453Z,100542.23
2017-12-21T14:43:41.988Z,100514.66
2017-12-21T14:46:08.380Z,100530.95
2017-12-21T14:48:34.754Z,100541.18
2017-12-21T14:51:01.188Z,100537.23
2017-12-21T14:53:27.522Z,100541.05
2017-12-21T14:55:54.058Z,100527.84
2017-12-21T14:58:20.360Z,100534.04
2017-12-21T15:00:46.824Z,100537.12
2017-12-21T15:03:13.260Z,100538.67
2017-12-21T15:05:39.636Z,100538.95
2017-12-21T15:08:05.982Z,100541.61
2017-12-21T15:10:32.360Z,100540.41
2017-12-21T15:12:58.793Z,100506.52
2017-12-21T15:15:25.227Z,100544.09
2017-12-21T15:17:51.662Z,100544.69
2017-12-21T15:20:18.094Z,100543.27
2017-12-21T15:22:44.432Z,100551.38
2017-12-21T15:25:10.968Z,100555.95
2017-12-21T15:27:37.401Z,100564.09
2017-12-21T15:30:03.835Z,100553.16
2017-12-21T15:32:30.276Z,100526.72
2017-12-21T15:34:56.702Z,100549.68
2017-12-21T15:37:23.163Z,100555.97
2017-12-21T15:39:49.576Z,100556.33
2017-12-21T15:42:16.212Z,100559.81
2017-12-21T15:44:42.645Z,100562.60
2017-12-21T15:47:09.008Z,100566.13
2017-12-21T15:49:35.412Z,100570.39
2017-12-21T15:52:01.850Z,100573.89
2017-12-21T15:54:28.383Z,100577.41
2017-12-21T15:56:54.820Z,100574.35
2017-12-21T15:59:21.254Z,100566.74
2017-12-21T16:01:47.687Z,100567.96
2017-12-21T16:04:14.019Z,100576.77
2017-12-21T16:06:40.351Z,100572.30
2017-12-21T16:09:06.786Z,100583.84
2017-12-21T16:11:33.221Z,100582.17
2017-12-21T16:14:00.362Z,100591.20
2017-12-21T16:16:26.806Z,100559.76
2017-12-21T16:18:53.342Z,100581.62
2017-12-21T16:21:19.716Z,100579.17
2017-12-21T16:23:46.110Z,100595.11
2017-12-21T16:26:12.749Z,100588.09
2017-12-21T16:28:39.202Z,100593.06
2017-12-21T16:31:06.343Z,100595.98
2017-12-21T16:33:32.871Z,100587.91
2017-12-21T16:35:59.316Z,100592.19
2017-12-21T16:38:25.672Z,100599.09
2017-12-21T16:40:52.055Z,100594.02
2017-12-21T16:43:18.489Z,100596.77
2017-12-21T16:45:44.882Z,100607.63
2017-12-21T16:48:12.216Z,100606.85
2017-12-21T16:50:38.630Z,100604.08
2017-12-21T16:53:05.168Z,100611.92
2017-12-21T16:55:31.602Z,100609.42
2017-12-21T16:57:58.036Z,100618.36
2017-12-21T17:00:24.368Z,100624.39
2017-12-21T17:02:50.803Z,100617.67
2017-12-21T17:05:17.942Z,100623.41
2017-12-21T17:07:44.399Z,100634.97
2017-12-21T17:10:10.822Z,100625.56
2017-12-21T17:12:37.259Z,100627.89
2017-12-21T17:15:03.610Z,100627.13
2017-12-21T17:17:30.002Z,100624.98
2017-12-21T17:19:56.356Z,100629.92
2017-12-21T17:22:23.713Z,100631.33
2017-12-21T17:24:50.146Z,100630.94
2017-12-21T17:27:16.580Z,100636.68
2017-12-21T17:29:43.014Z,100630.96
2017-12-21T17:32:09.450Z,100632.21
2017-12-21T17:34:35.885Z,100634.23
2017-12-21T17:37:02.319Z,100623.75
2017-12-21T17:39:29.573Z,100629.05
2017-12-21T17:41:56.007Z,100629.97
2017-12-21T17:44:22.340Z,100617.50
2017-12-21T17:46:48.774Z,100620.88
2017-12-21T17:49:15.208Z,100613.84
2017-12-21T17:51:41.644Z,100617.02
2017-12-21T17:54:08.082Z,100614.22
2017-12-21T17:56:35.331Z,100615.83
2017-12-21T17:59:01.701Z,100621.80
2017-12-21T18:01:28.030Z,100627.50
2017-12-21T18:03:54.431Z,100622.80
2017-12-21T18:06:20.865Z,100613.84
2017-12-21T18:08:47.299Z,100588.64
2017-12-21T18:11:13.696Z,100612.05
2017-12-21T18:13:40.782Z,100607.73
2017-12-21T18:16:07.218Z,100602.34
2017-12-21T18:18:33.549Z,100595.41
2017-12-21T18:21:00.087Z,100589.11
2017-12-21T18:23:26.508Z,100596.87
2017-12-21T18:25:52.955Z,100596.84
2017-12-21T18:28:19.389Z,100602.31
2017-12-21T18:30:46.478Z,100600.73
2017-12-21T18:33:12.849Z,100597.96
2017-12-21T18:35:39.244Z,100598.09
2017-12-21T18:38:05.580Z,100597.55
2017-12-21T18:40:32.074Z,100603.81
2017-12-21T18:42:58.510Z,100598.34
2017-12-21T18:45:24.943Z,100596.93
2017-12-21T18:47:52.201Z,100595.02
2017-12-21T18:50:18.528Z,100591.59
2017-12-21T18:52:45.067Z,100584.11
2017-12-21T18:55:11.501Z,100582.34
2017-12-21T18:57:37.935Z,100581.75
2017-12-21T19:00:04.369Z,100584.58
2017-12-21T19:02:30.842Z,100572.31
2017-12-21T19:04:58.058Z,100573.53
2017-12-21T19:07:24.492Z,100572.94
2017-12-21T19:09:50.926Z,100571.58
2017-12-21T19:12:17.363Z,100574.40
2017-12-21T19:14:43.797Z,100576.63
2017-12-21T19:17:10.230Z,100574.98
2017-12-21T19:19:36.664Z,100579.51
2017-12-21T19:22:03.818Z,100580.48
2017-12-21T19:24:30.251Z,100576.72
2017-12-21T19:26:56.686Z,100580.16
2017-12-21T19:29:23.120Z,100579.91
2017-12-21T19:31:49.554Z,100573.92
2017-12-21T19:34:15.988Z,100577.52
2017-12-21T19:36:42.293Z,100580.27
2017-12-21T19:39:09.472Z,100577.62
2017-12-21T19:41:35.922Z,100583.44
2017-12-21T19:44:02.341Z,100580.62
2017-12-21T19:46:28.776Z,100580.20
2017-12-21T19:48:55.210Z,100580.75
2017-12-21T19:51:21.645Z,100583.29
2017-12-21T19:53:48.080Z,100581.37
2017-12-21T19:56:15.332Z,100570.75
2017-12-21T19:58:41.767Z,100572.11
2017-12-21T20:01:08.099Z,100570.45
2017-12-21T20:03:34.536Z,100573.78
2017-12-21T20:06:00.973Z,100566.86
2017-12-21T20:08:27.430Z,100571.70
2017-12-21T20:10:53.840Z,100577.94
2017-12-21T20:13:21.091Z,100578.19
2017-12-21T20:15:47.529Z,100576.70
2017-12-21T20:18:14.079Z,100548.70
2017-12-21T20:20:40.434Z,100574.52
2017-12-21T20:23:06.813Z,100573.27
2017-12-21T20:25:33.254Z,100584.50
2017-12-21T20:27:59.597Z,100582.91
2017-12-21T20:30:26.936Z,100552.52
2017-12-21T20:32:53.387Z,100583.81
2017-12-21T20:35:19.839Z,100582.39
2017-12-21T20:37:46.236Z,100579.57
2017-12-21T20:40:12.680Z,100557.95
2017-12-21T20:42:39.124Z,100561.91
2017-12-21T20:45:05.492Z,100577.70
2017-12-21T20:47:32.815Z,100580.63
2017-12-21T20:49:59.246Z,100576.14
2017-12-21T20:52:25.587Z,100574.98
2017-12-21T20:54:52.014Z,100576.80
2017-12-21T20:57:18.346Z,100575.27
2017-12-21T20:59:44.712Z,100570.31
2017-12-21T21:02:11.113Z,100559.70
2017-12-21T21:04:38.369Z,100569.20
2017-12-21T21:07:04.799Z,100568.40
2017-12-21T21:09:31.235Z,100568.40
2017-12-21T21:11:57.707Z,100563.83
2017-12-21T21:14:24.104Z,100559.52
2017-12-21T21:16:50.539Z,100551.03
2017-12-21T21:19:16.871Z,100551.64
2017-12-21T21:21:44.228Z,100542.80
2017-12-21T21:24:10.560Z,100550.95
2017-12-21T21:26:37.096Z,100554.85
2017-12-21T21:29:03.531Z,100550.98
2017-12-21T21:31:29.968Z,100558.55
2017-12-21T21:33:56.297Z,100552.75
2017-12-21T21:36:22.834Z,100551.14
2017-12-21T21:38:49.959Z,100549.08
2017-12-21T21:41:16.325Z,100547.50
2017-12-21T21:43:42.751Z,100546.88
2017-12-21T21:46:09.186Z,100551.38
2017-12-21T21:48:35.653Z,100544.94
2017-12-21T21:51:02.019Z,100536.86
2017-12-21T21:53:28.333Z,100537.06
2017-12-21T21:55:55.642Z,100506.97
2017-12-21T21:58:22.076Z,100528.10
2017-12-21T22:00:48.511Z,100502.10
2017-12-21T22:03:14.842Z,100519.57
2017-12-21T22:05:41.280Z,100521.05
2017-12-21T22:08:07.649Z,100512.93
2017-12-21T22:10:33.984Z,100515.19
2017-12-21T22:13:01.196Z,100510.72
2017-12-21T22:15:27.630Z,100509.67
2017-12-21T22:17:54.059Z,100499.38
2017-12-21T22:20:20.499Z,100490.04
2017-12-21T22:22:46.956Z,100495.70
2017-12-21T22:25:13.368Z,100490.78
2017-12-21T22:27:39.803Z,100487.89
2017-12-21T22:30:07.056Z,100489.31
2017-12-21T22:32:33.592Z,100492.11
2017-12-21T22:35:00.027Z,100484.23
2017-12-21T22:37:26.462Z,100479.70
2017-12-21T22:39:52.915Z,100482.91
2017-12-21T22:42:19.326Z,100477.42
2017-12-21T22:44:45.703Z,100471.22
2017-12-21T22:47:13.019Z,100470.91
2017-12-21T22:49:39.452Z,100475.11
2017-12-21T22:52:05.888Z,100470.45
2017-12-21T22:54:32.322Z,100461.04
2017-12-21T22:56:58.693Z,100462.36
2017-12-21T22:59:25.192Z,100463.03
2017-12-21T23:01:51.626Z,100461.23
2017-12-21T23:04:18.778Z,100458.80
2017-12-21T23:06:45.214Z,100464.31
2017-12-21T23:09:11.647Z,100458.95
2017-12-21T23:11:38.082Z,100461.83
2017-12-21T23:14:04.452Z,100461.61
2017-12-21T23:16:30.831Z,100451.40
2017-12-21T23:18:57.249Z,100449.83
2017-12-21T23:21:24.442Z,100448.12
2017-12-21T23:23:50.877Z,100452.20
2017-12-21T23:26:17.314Z,100451.95
2017-12-21T23:28:43.746Z,100406.17
2017-12-21T23:31:10.171Z,100454.52
2017-12-21T23:33:36.602Z,100452.45
2017-12-21T23:36:03.049Z,100427.30
2017-12-21T23:38:30.304Z,100443.75
2017-12-21T23:40:56.802Z,100436.27
2017-12-21T23:43:23.274Z,100438.64
2017-12-21T23:45:49.684Z,100439.41
2017-12-21T23:48:16.137Z,100447.20
2017-12-21T23:50:42.580Z,100443.67
2017-12-21T23:53:09.116Z,100450.34
2017-12-21T23:55:36.266Z,100444.83
2017-12-21T23:58:02.780Z,100445.26
